createdAt,value
2022-08-29T00:00:50.590Z,24.39
2022-08-29T00:01:45.380Z,24.35
2022-08-29T00:02:39.655Z,24.38
2022-08-29T00:03:38.037Z,24.37
2022-08-29T00:04:31.759Z,24.37
2022-08-29T00:05:32.715Z,24.38
2022-08-29T00:06:25.172Z,24.37
2022-08-29T00:07:18.701Z,24.36
2022-08-29T00:08:12.244Z,24.38
2022-08-29T00:10:12.983Z,24.33
2022-08-29T00:11:05.250Z,24.38
2022-08-29T00:11:55.912Z,24.36
2022-08-29T00:12:46.009Z,24.34
2022-08-29T00:13:35.298Z,24.33
2022-08-29T00:14:32.071Z,24.34
2022-08-29T00:15:22.918Z,24.33
2022-08-29T00:16:14.887Z,24.33
2022-08-29T00:17:04.626Z,24.33
2022-08-29T00:17:55.774Z,24.34
2022-08-29T00:18:49.467Z,24.32
2022-08-29T00:20:41.302Z,24.29
2022-08-29T00:21:34.067Z,24.29
2022-08-29T00:22:27.789Z,24.33
2022-08-29T00:23:20.624Z,24.33
2022-08-29T00:24:12.328Z,24.31
2022-08-29T00:26:07.877Z,24.26
2022-08-29T00:27:02.228Z,24.23
2022-08-29T00:27:54.694Z,24.24
2022-08-29T00:28:48.381Z,24.26
2022-08-29T00:29:40.311Z,24.27
2022-08-29T00:31:34.800Z,24.28
2022-08-29T00:32:26.908Z,24.30
2022-08-29T00:33:20.214Z,24.28
2022-08-29T00:34:10.266Z,24.29
2022-08-29T00:35:07.808Z,24.30
2022-08-29T00:36:00.757Z,24.28
2022-08-29T00:36:53.721Z,24.28
2022-08-29T00:37:48.347Z,24.25
2022-08-29T00:38:42.853Z,24.27
2022-08-29T00:39:34.971Z,24.29
2022-08-29T00:40:29.758Z,24.25
2022-08-29T00:41:23.094Z,24.27
2022-08-29T00:42:17.393Z,24.20
2022-08-29T00:43:11.767Z,24.23
2022-08-29T00:44:04.678Z,24.24
2022-08-29T00:44:57.671Z,24.26
2022-08-29T00:46:45.780Z,24.23
2022-08-29T00:47:36.721Z,24.22
2022-08-29T00:48:31.138Z,24.23
2022-08-29T00:49:22.451Z,24.20
2022-08-29T00:50:16.964Z,24.22
2022-08-29T00:51:15.847Z,24.23
2022-08-29T00:52:09.315Z,24.21
2022-08-29T00:52:59.675Z,24.21
2022-08-29T00:53:51.743Z,24.21
2022-08-29T00:54:44.934Z,24.22
2022-08-29T00:55:38.159Z,24.24
2022-08-29T00:57:32.005Z,24.18
2022-08-29T00:58:24.671Z,24.17
2022-08-29T00:59:29.492Z,24.19
2022-08-29T01:00:25.718Z,24.20
2022-08-29T01:01:18.079Z,24.20
2022-08-29T01:03:04.505Z,24.19
2022-08-29T01:03:55.046Z,24.18
2022-08-29T01:04:46.057Z,24.17
2022-08-29T01:05:35.686Z,24.19
2022-08-29T01:06:27.734Z,24.18
2022-08-29T01:07:23.554Z,24.15
2022-08-29T01:08:15.219Z,24.17
2022-08-29T01:09:03.878Z,24.15
2022-08-29T01:09:54.297Z,24.18
2022-08-29T01:10:47.914Z,24.17
2022-08-29T01:11:38.546Z,24.16
2022-08-29T01:12:34.670Z,24.17
2022-08-29T01:13:25.408Z,24.13
2022-08-29T01:14:15.692Z,24.15
2022-08-29T01:15:05.050Z,24.15
2022-08-29T01:15:53.838Z,24.13
2022-08-29T01:16:41.576Z,24.12
2022-08-29T01:17:38.149Z,24.16
2022-08-29T01:18:29.193Z,24.14
2022-08-29T01:19:39.380Z,24.16
2022-08-29T01:20:32.448Z,24.13
2022-08-29T01:21:14.771Z,24.15
2022-08-29T01:22:14.614Z,24.15
2022-08-29T01:23:11.189Z,24.13
2022-08-29T01:24:01.643Z,24.14
2022-08-29T01:24:57.221Z,24.13
2022-08-29T01:25:47.762Z,24.10
2022-08-29T01:26:40.673Z,24.10
2022-08-29T01:27:29.866Z,24.10
2022-08-29T01:28:11.085Z,24.10
2022-08-29T01:28:58.512Z,24.10
2022-08-29T01:29:50.552Z,24.10
2022-08-29T01:30:42.612Z,24.08
2022-08-29T01:31:37.876Z,24.09
2022-08-29T01:32:37.954Z,24.09
2022-08-29T01:33:25.934Z,24.10
2022-08-29T01:34:14.211Z,24.10
2022-08-29T01:35:03.100Z,24.12
2022-08-29T01:35:54.865Z,24.10
2022-08-29T01:36:47.374Z,24.09
2022-08-29T01:37:34.438Z,24.07
2022-08-29T01:38:25.440Z,24.08
2022-08-29T01:39:14.136Z,24.05
2022-08-29T01:40:04.801Z,24.03
2022-08-29T01:40:52.684Z,24.00
2022-08-29T01:41:39.851Z,24.00
2022-08-29T01:42:29.445Z,24.03
2022-08-29T01:43:27.951Z,24.00
2022-08-29T01:44:22.191Z,24.00
2022-08-29T01:45:13.764Z,24.01
2022-08-29T01:46:01.931Z,24.00
2022-08-29T01:46:50.979Z,23.99
2022-08-29T01:47:39.638Z,24.00
2022-08-29T01:50:20.421Z,24.00
2022-08-29T01:52:20.519Z,24.02
2022-08-29T01:54:14.014Z,24.02
2022-08-29T01:55:57.391Z,24.01
2022-08-29T01:57:59.893Z,24.01
2022-08-29T02:31:01.985Z,23.76
2022-08-29T02:48:11.996Z,23.84
2022-08-29T02:49:14.179Z,23.84
2022-08-29T06:01:07.330Z,23.43
2022-08-29T06:01:57.929Z,23.46
2022-08-29T06:03:50.230Z,23.44
2022-08-29T06:04:42.961Z,23.43
2022-08-29T06:05:32.207Z,23.44
2022-08-29T06:06:21.187Z,23.43
2022-08-29T06:07:14.454Z,23.43
2022-08-29T06:08:11.400Z,23.42
2022-08-29T06:09:03.239Z,23.45
2022-08-29T06:09:52.627Z,23.45
2022-08-29T06:11:56.985Z,23.47
2022-08-29T06:12:52.141Z,23.47
2022-08-29T06:13:42.665Z,23.46
2022-08-29T06:14:40.531Z,23.46
2022-08-29T06:17:00.620Z,23.42
2022-08-29T06:17:31.951Z,23.43
2022-08-29T06:18:03.273Z,23.42
2022-08-29T06:18:35.909Z,23.45
2022-08-29T06:19:07.804Z,23.46
2022-08-29T06:19:39.319Z,23.45
2022-08-29T06:20:10.859Z,23.43
2022-08-29T06:20:42.246Z,23.44
2022-08-29T06:21:13.872Z,23.45
2022-08-29T06:21:45.291Z,23.47
2022-08-29T06:22:16.702Z,23.46
2022-08-29T06:22:48.098Z,23.49
2022-08-29T06:23:19.486Z,23.49
2022-08-29T06:23:54.883Z,23.49
2022-08-29T06:24:26.237Z,23.48
2022-08-29T06:24:58.513Z,23.48
2022-08-29T06:25:39.507Z,23.50
2022-08-29T06:26:11.754Z,23.50
2022-08-29T06:26:43.625Z,23.50
2022-08-29T06:27:15.616Z,23.49
2022-08-29T06:27:47.159Z,23.47
2022-08-29T06:28:23.806Z,23.50
2022-08-29T06:28:55.517Z,23.49
2022-08-29T06:29:26.957Z,23.49
2022-08-29T06:30:01.763Z,23.47
2022-08-29T06:30:33.575Z,23.46
2022-08-29T06:31:31.025Z,23.47
2022-08-29T06:32:02.544Z,23.49
2022-08-29T06:32:33.924Z,23.50
2022-08-29T06:33:05.350Z,23.49
2022-08-29T06:33:36.931Z,23.47
2022-08-29T06:34:08.931Z,23.46
2022-08-29T06:34:40.399Z,23.43
2022-08-29T06:35:11.767Z,23.44
2022-08-29T06:35:43.144Z,23.45
2022-08-29T06:36:14.530Z,23.45
2022-08-29T06:36:45.979Z,23.44
2022-08-29T06:37:17.450Z,23.47
2022-08-29T06:37:48.873Z,23.48
2022-08-29T06:38:20.733Z,23.45
2022-08-29T06:38:52.761Z,23.48
2022-08-29T06:39:24.153Z,23.46
2022-08-29T06:39:55.658Z,23.44
2022-08-29T06:40:27.195Z,23.42
2022-08-29T06:41:02.259Z,23.43
2022-08-29T06:41:33.695Z,23.40
2022-08-29T06:42:05.197Z,23.42
2022-08-29T06:42:36.698Z,23.42
2022-08-29T06:43:08.280Z,23.43
2022-08-29T06:43:39.963Z,23.40
2022-08-29T06:44:11.353Z,23.44
2022-08-29T06:44:44.615Z,23.46
2022-08-29T06:45:16.182Z,23.45
2022-08-29T06:45:47.619Z,23.45
2022-08-29T06:46:20.324Z,23.47
2022-08-29T06:46:51.752Z,23.47
2022-08-29T06:47:23.151Z,23.48
2022-08-29T06:47:54.512Z,23.48
2022-08-29T06:48:29.445Z,23.47
2022-08-29T06:49:01.600Z,23.48
2022-08-29T06:49:32.995Z,23.51
2022-08-29T06:50:04.590Z,23.49
2022-08-29T06:50:36.892Z,23.47
2022-08-29T06:51:08.340Z,23.48
2022-08-29T06:51:40.295Z,23.48
2022-08-29T06:52:11.704Z,23.50
2022-08-29T06:52:43.099Z,23.46
2022-08-29T06:53:27.348Z,23.47
2022-08-29T06:54:03.701Z,23.49
2022-08-29T06:54:38.528Z,23.47
2022-08-29T06:55:10.247Z,23.47
2022-08-29T06:55:42.159Z,23.48
2022-08-29T06:56:14.567Z,23.48
2022-08-29T06:56:46.012Z,23.49
2022-08-29T06:57:17.372Z,23.50
2022-08-29T06:57:48.760Z,23.52
2022-08-29T06:58:20.193Z,23.52
2022-08-29T06:58:51.577Z,23.48
2022-08-29T06:59:23.009Z,23.50
2022-08-29T06:59:54.533Z,23.52
2022-08-29T07:00:25.979Z,23.51
2022-08-29T07:00:57.480Z,23.52
2022-08-29T07:01:29.007Z,23.51
2022-08-29T07:02:00.620Z,23.51
2022-08-29T07:02:32.127Z,23.51
2022-08-29T07:03:03.748Z,23.49
2022-08-29T07:03:35.307Z,23.49
2022-08-29T07:04:06.790Z,23.47
2022-08-29T07:04:45.992Z,23.46
2022-08-29T07:05:17.573Z,23.46
2022-08-29T07:05:52.663Z,23.49
2022-08-29T07:06:24.278Z,23.47
2022-08-29T07:06:55.750Z,23.48
2022-08-29T07:07:27.241Z,23.47
2022-08-29T07:07:58.881Z,23.47
2022-08-29T07:08:30.578Z,23.49
2022-08-29T07:09:02.087Z,23.51
2022-08-29T07:09:33.516Z,23.50
2022-08-29T07:10:05.123Z,23.52
2022-08-29T07:10:36.812Z,23.52
2022-08-29T07:11:08.331Z,23.50
2022-08-29T07:12:25.597Z,23.52
2022-08-29T07:12:59.832Z,23.51
2022-08-29T07:13:31.158Z,23.49
2022-08-29T07:14:02.617Z,23.53
2022-08-29T07:14:34.001Z,23.52
2022-08-29T07:15:05.793Z,23.52
2022-08-29T07:15:37.578Z,23.49
2022-08-29T07:16:09.662Z,23.50
2022-08-29T07:16:41.307Z,23.51
2022-08-29T07:17:12.778Z,23.49
2022-08-29T07:18:00.002Z,23.50
2022-08-29T07:18:31.964Z,23.49
2022-08-29T07:19:03.971Z,23.51
2022-08-29T07:19:35.453Z,23.49
2022-08-29T07:20:07.081Z,23.49
2022-08-29T07:20:38.946Z,23.49
2022-08-29T07:21:11.268Z,23.48
2022-08-29T07:21:42.710Z,23.49
2022-08-29T07:22:14.181Z,23.50
2022-08-29T07:22:45.609Z,23.49
2022-08-29T07:23:17.146Z,23.48
2022-08-29T07:23:49.220Z,23.47
2022-08-29T07:24:24.644Z,23.47
2022-08-29T07:24:56.500Z,23.49
2022-08-29T07:25:27.982Z,23.48
2022-08-29T07:26:12.516Z,23.52
2022-08-29T07:26:44.294Z,23.51
2022-08-29T07:27:15.717Z,23.50
2022-08-29T07:27:47.582Z,23.50
2022-08-29T07:28:23.741Z,23.52
2022-08-29T07:28:57.018Z,23.52
2022-08-29T07:29:29.089Z,23.53
2022-08-29T07:30:00.570Z,23.52
2022-08-29T07:30:32.126Z,23.53
2022-08-29T07:31:04.085Z,23.55
2022-08-29T07:31:35.595Z,23.50
2022-08-29T07:32:07.022Z,23.51
2022-08-29T07:32:38.718Z,23.49
2022-08-29T07:33:10.894Z,23.49
2022-08-29T07:33:42.391Z,23.51
2022-08-29T07:34:14.098Z,23.52
2022-08-29T07:34:45.593Z,23.54
2022-08-29T07:35:19.799Z,23.52
2022-08-29T07:36:01.286Z,23.52
2022-08-29T07:36:34.430Z,23.53
2022-08-29T07:37:06.246Z,23.49
2022-08-29T07:37:37.770Z,23.49
2022-08-29T07:38:09.250Z,23.48
2022-08-29T07:38:40.766Z,23.47
2022-08-29T07:39:13.315Z,23.46
2022-08-29T07:39:44.872Z,23.46
2022-08-29T07:40:17.830Z,23.49
2022-08-29T07:40:49.383Z,23.47
2022-08-29T07:41:20.790Z,23.45
2022-08-29T07:41:52.374Z,23.44
2022-08-29T07:42:23.815Z,23.45
2022-08-29T07:42:55.253Z,23.46
2022-08-29T07:43:28.074Z,23.46
2022-08-29T07:43:59.806Z,23.46
2022-08-29T07:44:34.322Z,23.44
2022-08-29T07:45:06.648Z,23.46
2022-08-29T07:45:38.614Z,23.48
2022-08-29T07:46:13.063Z,23.46
2022-08-29T07:46:44.532Z,23.49
2022-08-29T07:47:16.092Z,23.49
2022-08-29T07:47:47.542Z,23.47
2022-08-29T07:48:22.883Z,23.49
2022-08-29T07:48:54.691Z,23.48
2022-08-29T07:49:36.048Z,23.48
2022-08-29T07:50:12.840Z,23.49
2022-08-29T07:50:44.291Z,23.46
2022-08-29T07:51:16.475Z,23.44
2022-08-29T07:51:47.919Z,23.45
2022-08-29T07:52:19.436Z,23.45
2022-08-29T07:52:50.886Z,23.44
2022-08-29T07:53:22.326Z,23.46
2022-08-29T07:53:53.875Z,23.45
2022-08-29T07:54:25.342Z,23.43
2022-08-29T07:54:56.752Z,23.43
2022-08-29T07:55:28.247Z,23.45
2022-08-29T07:55:59.719Z,23.48
2022-08-29T07:56:37.028Z,23.50
2022-08-29T07:57:09.315Z,23.50
2022-08-29T07:57:40.729Z,23.49
2022-08-29T07:58:12.140Z,23.47
2022-08-29T07:58:43.538Z,23.47
2022-08-29T07:59:15.123Z,23.45
2022-08-29T07:59:46.490Z,23.47
2022-08-29T08:00:18.198Z,23.47
2022-08-29T08:00:49.867Z,23.47
2022-08-29T08:01:21.944Z,23.46
2022-08-29T08:01:53.582Z,23.45
2022-08-29T08:02:25.155Z,23.47
2022-08-29T08:02:56.654Z,23.46
2022-08-29T08:03:28.249Z,23.49
2022-08-29T08:03:59.662Z,23.52
2022-08-29T08:04:31.131Z,23.50
2022-08-29T08:05:02.561Z,23.50
2022-08-29T08:05:38.163Z,23.50
2022-08-29T08:06:09.719Z,23.52
2022-08-29T08:06:41.288Z,23.51
2022-08-29T08:07:14.214Z,23.54
2022-08-29T08:07:47.412Z,23.52
2022-08-29T08:08:19.324Z,23.54
2022-08-29T08:08:50.943Z,23.52
2022-08-29T08:09:22.352Z,23.54
2022-08-29T08:09:53.824Z,23.53
2022-08-29T08:10:25.253Z,23.49
2022-08-29T08:10:56.738Z,23.49
2022-08-29T08:11:28.351Z,23.49
2022-08-29T08:11:59.962Z,23.46
2022-08-29T08:12:31.546Z,23.47
2022-08-29T08:13:03.057Z,23.50
2022-08-29T08:13:34.596Z,23.53
2022-08-29T08:14:06.111Z,23.52
2022-08-29T08:14:37.592Z,23.54
2022-08-29T08:15:09.293Z,23.53
2022-08-29T08:15:40.769Z,23.54
2022-08-29T08:16:13.360Z,23.54
2022-08-29T08:16:45.009Z,23.53
2022-08-29T08:17:16.459Z,23.53
2022-08-29T08:17:47.869Z,23.49
2022-08-29T08:18:19.354Z,23.52
2022-08-29T08:18:50.873Z,23.51
2022-08-29T08:19:22.304Z,23.51
2022-08-29T08:19:53.793Z,23.53
2022-08-29T08:20:25.316Z,23.53
2022-08-29T08:20:56.767Z,23.55
2022-08-29T08:21:28.214Z,23.55
2022-08-29T08:21:59.622Z,23.56
2022-08-29T08:22:31.076Z,23.53
2022-08-29T08:23:02.506Z,23.53
2022-08-29T08:23:33.944Z,23.51
2022-08-29T08:24:05.450Z,23.53
2022-08-29T08:24:37.623Z,23.55
2022-08-29T08:25:09.213Z,23.55
2022-08-29T08:25:40.656Z,23.55
2022-08-29T08:26:12.287Z,23.56
2022-08-29T08:26:43.822Z,23.54
2022-08-29T08:27:15.256Z,23.54
2022-08-29T08:27:46.986Z,23.54
2022-08-29T08:28:18.456Z,23.57
2022-08-29T08:28:49.841Z,23.58
2022-08-29T08:29:21.343Z,23.59
2022-08-29T08:29:52.928Z,23.58
2022-08-29T08:30:27.155Z,23.58
2022-08-29T08:31:03.573Z,23.54
2022-08-29T08:31:36.791Z,23.53
2022-08-29T08:32:08.323Z,23.51
2022-08-29T08:32:42.079Z,23.50
2022-08-29T08:33:17.268Z,23.47
2022-08-29T08:33:48.836Z,23.45
2022-08-29T08:34:20.345Z,23.45
2022-08-29T08:34:53.668Z,23.46
2022-08-29T08:35:26.011Z,23.48
2022-08-29T08:35:57.523Z,23.47
2022-08-29T08:36:29.848Z,23.46
2022-08-29T08:37:01.263Z,23.45
2022-08-29T08:37:32.774Z,23.46
2022-08-29T08:38:04.472Z,23.43
2022-08-29T08:38:35.939Z,23.42
2022-08-29T08:39:07.434Z,23.42
2022-08-29T08:39:38.946Z,23.40
2022-08-29T08:40:13.643Z,23.41
2022-08-29T08:40:53.989Z,23.40
2022-08-29T08:41:34.393Z,23.41
2022-08-29T08:42:13.410Z,23.40
2022-08-29T08:42:45.180Z,23.41
2022-08-29T08:43:18.471Z,23.42
2022-08-29T08:44:00.001Z,23.39
2022-08-29T08:44:35.396Z,23.41
2022-08-29T08:45:08.012Z,23.42
2022-08-29T08:45:40.534Z,23.39
2022-08-29T08:46:12.047Z,23.38
2022-08-29T08:46:44.254Z,23.38
2022-08-29T08:47:16.244Z,23.39
2022-08-29T08:47:54.778Z,23.38
2022-08-29T08:48:26.645Z,23.36
2022-08-29T08:48:58.103Z,23.41
2022-08-29T08:49:32.537Z,23.40
2022-08-29T08:50:09.852Z,23.42
2022-08-29T08:50:55.126Z,23.38
2022-08-29T08:51:28.613Z,23.39
2022-08-29T08:52:02.070Z,23.37
2022-08-29T08:52:37.471Z,23.35
2022-08-29T08:53:47.896Z,23.35
2022-08-29T08:54:23.701Z,23.33
2022-08-29T08:55:02.080Z,23.37
2022-08-29T08:55:52.599Z,23.40
2022-08-29T08:56:37.942Z,23.42
2022-08-29T08:57:10.232Z,23.43
2022-08-29T08:57:44.128Z,23.45
2022-08-29T08:58:29.107Z,23.46
2022-08-29T08:59:08.415Z,23.50
2022-08-29T08:59:40.563Z,23.51
2022-08-29T09:00:12.204Z,23.50
2022-08-29T09:00:45.174Z,23.49
2022-08-29T09:01:24.493Z,23.49
2022-08-29T09:01:56.011Z,23.44
2022-08-29T09:02:32.993Z,23.45
2022-08-29T09:03:17.715Z,23.47
2022-08-29T09:04:07.916Z,23.45
2022-08-29T09:04:42.714Z,23.49
2022-08-29T09:05:27.045Z,23.50
2022-08-29T09:06:01.559Z,23.51
2022-08-29T09:06:51.433Z,23.49
2022-08-29T09:07:27.715Z,23.52
2022-08-29T09:08:05.539Z,23.54
2022-08-29T09:08:46.718Z,23.52
2022-08-29T09:09:25.559Z,23.51
2022-08-29T09:10:15.718Z,23.51
2022-08-29T09:10:47.122Z,23.47
2022-08-29T09:11:20.300Z,23.45
2022-08-29T09:11:51.744Z,23.47
2022-08-29T09:12:41.962Z,23.47
2022-08-29T09:13:32.229Z,23.46
2022-08-29T09:14:08.152Z,23.49
2022-08-29T09:14:42.312Z,23.53
2022-08-29T09:15:15.152Z,23.52
2022-08-29T09:15:47.324Z,23.51
2022-08-29T09:16:25.798Z,23.51
2022-08-29T09:16:57.335Z,23.51
2022-08-29T09:17:29.713Z,23.53
2022-08-29T09:18:13.407Z,23.51
2022-08-29T09:18:52.576Z,23.51
2022-08-29T09:19:25.631Z,23.50
2022-08-29T09:19:57.102Z,23.50
2022-08-29T09:20:30.437Z,23.53
2022-08-29T09:21:09.983Z,23.51
2022-08-29T09:21:59.422Z,23.56
2022-08-29T09:22:32.905Z,23.54
2022-08-29T09:23:07.495Z,23.55
2022-08-29T09:23:48.723Z,23.56
2022-08-29T09:24:27.230Z,23.54
2022-08-29T09:25:03.011Z,23.52
2022-08-29T09:25:34.431Z,23.51
2022-08-29T09:26:05.944Z,23.53
2022-08-29T09:26:39.024Z,23.49
2022-08-29T09:27:17.449Z,23.50
2022-08-29T09:27:48.848Z,23.49
2022-08-29T09:28:20.562Z,23.47
2022-08-29T09:28:52.018Z,23.47
2022-08-29T09:29:24.831Z,23.46
2022-08-29T09:30:03.971Z,23.44
2022-08-29T09:30:35.631Z,23.43
2022-08-29T09:31:15.937Z,23.41
2022-08-29T09:31:49.003Z,23.41
2022-08-29T09:32:22.648Z,23.41
2022-08-29T09:32:58.456Z,23.39
2022-08-29T09:33:39.599Z,23.42
2022-08-29T09:34:12.739Z,23.42
2022-08-29T09:35:07.397Z,23.42
2022-08-29T09:35:37.481Z,23.39
2022-08-29T09:36:12.013Z,23.42
2022-08-29T09:36:52.621Z,23.40
2022-08-29T09:37:24.069Z,23.48
2022-08-29T09:37:56.572Z,23.48
2022-08-29T09:38:28.020Z,23.47
2022-08-29T09:39:12.349Z,23.49
2022-08-29T09:39:51.990Z,23.48
2022-08-29T09:40:23.685Z,23.42
2022-08-29T09:40:58.732Z,23.44
2022-08-29T09:41:30.747Z,23.45
2022-08-29T09:42:11.143Z,23.44
2022-08-29T09:42:43.519Z,23.41
2022-08-29T09:43:19.835Z,23.43
2022-08-29T09:43:51.480Z,23.42
2022-08-29T09:44:25.133Z,23.42
2022-08-29T09:44:57.369Z,23.43
2022-08-29T09:45:28.881Z,23.45
2022-08-29T09:46:03.338Z,23.44
2022-08-29T09:46:34.735Z,23.43
2022-08-29T09:47:25.672Z,23.46
2022-08-29T09:48:10.616Z,23.49
2022-08-29T09:48:46.205Z,23.44
2022-08-29T09:49:17.643Z,23.49
2022-08-29T09:50:09.241Z,23.43
2022-08-29T09:50:40.720Z,23.48
2022-08-29T09:51:47.628Z,23.47
2022-08-29T09:52:24.356Z,23.42
2022-08-29T09:52:56.692Z,23.46
2022-08-29T09:53:28.210Z,23.53
2022-08-29T09:54:15.174Z,23.54
2022-08-29T09:54:46.584Z,23.52
2022-08-29T09:55:17.947Z,23.51
2022-08-29T09:55:49.347Z,23.53
2022-08-29T09:56:24.541Z,23.56
2022-08-29T09:57:00.209Z,23.58
2022-08-29T09:57:38.849Z,23.61
2022-08-29T09:58:26.199Z,23.56
2022-08-29T09:59:04.577Z,23.57
2022-08-29T09:59:44.674Z,23.60
2022-08-29T10:00:17.935Z,23.62
2022-08-29T10:00:59.892Z,23.59
2022-08-29T10:01:31.953Z,23.61
2022-08-29T10:02:08.431Z,23.63
2022-08-29T10:02:43.460Z,23.63
2022-08-29T10:03:21.996Z,23.61
2022-08-29T10:04:01.682Z,23.59
2022-08-29T10:04:37.059Z,23.60
2022-08-29T10:05:13.259Z,23.57
2022-08-29T10:05:45.144Z,23.54
2022-08-29T10:06:17.456Z,23.51
2022-08-29T10:06:52.667Z,23.51
2022-08-29T10:07:27.389Z,23.50
2022-08-29T10:07:58.841Z,23.49
2022-08-29T10:08:31.497Z,23.47
2022-08-29T10:09:07.110Z,23.47
2022-08-29T10:09:38.677Z,23.44
2022-08-29T10:10:22.449Z,23.44
2022-08-29T10:10:56.165Z,23.48
2022-08-29T10:11:35.242Z,23.46
2022-08-29T10:12:10.954Z,23.44
2022-08-29T10:12:45.004Z,23.45
2022-08-29T10:13:34.376Z,23.44
2022-08-29T10:14:06.791Z,23.42
2022-08-29T10:14:50.012Z,23.45
2022-08-29T10:15:46.945Z,23.44
2022-08-29T10:16:27.588Z,23.44
2022-08-29T10:17:03.387Z,23.44
2022-08-29T10:17:39.074Z,23.46
2022-08-29T10:18:13.395Z,23.44
2022-08-29T10:18:47.562Z,23.41
2022-08-29T10:19:21.617Z,23.44
2022-08-29T10:19:53.050Z,23.43
2022-08-29T10:20:25.972Z,23.43
2022-08-29T10:21:04.833Z,23.45
2022-08-29T10:21:39.227Z,23.46
2022-08-29T10:22:29.922Z,23.43
2022-08-29T10:23:06.331Z,23.45
2022-08-29T10:23:52.708Z,23.46
2022-08-29T10:24:26.996Z,23.48
2022-08-29T10:25:04.338Z,23.51
2022-08-29T10:25:36.753Z,23.53
2022-08-29T10:26:28.461Z,23.52
2022-08-29T10:27:18.263Z,23.52
2022-08-29T10:27:52.741Z,23.54
2022-08-29T10:28:33.317Z,23.54
2022-08-29T10:29:19.996Z,23.52
2022-08-29T10:30:14.963Z,23.54
2022-08-29T10:30:52.046Z,23.51
2022-08-29T10:31:28.193Z,23.48
2022-08-29T10:32:05.994Z,23.50
2022-08-29T10:32:55.745Z,23.48
2022-08-29T10:33:35.422Z,23.45
2022-08-29T10:34:09.471Z,23.46
2022-08-29T10:34:44.733Z,23.43
2022-08-29T10:35:16.167Z,23.43
2022-08-29T10:35:55.633Z,23.42
2022-08-29T10:36:33.431Z,23.44
2022-08-29T10:37:09.871Z,23.45
2022-08-29T10:37:43.954Z,23.43
2022-08-29T10:38:18.014Z,23.45
2022-08-29T10:39:07.861Z,23.47
2022-08-29T10:39:55.785Z,23.49
2022-08-29T10:40:31.581Z,23.48
2022-08-29T10:41:23.447Z,23.47
2022-08-29T10:41:58.508Z,23.52
2022-08-29T10:42:29.968Z,23.53
2022-08-29T10:43:12.831Z,23.54
2022-08-29T10:44:07.334Z,23.53
2022-08-29T10:44:57.799Z,23.57
2022-08-29T10:45:32.509Z,23.58
2022-08-29T10:46:06.783Z,23.58
2022-08-29T10:46:56.461Z,23.55
2022-08-29T10:47:39.471Z,23.57
2022-08-29T10:48:11.683Z,23.59
2022-08-29T10:48:46.500Z,23.58
2022-08-29T10:49:23.656Z,23.54
2022-08-29T10:50:16.929Z,23.52
2022-08-29T10:50:56.611Z,23.47
2022-08-29T10:51:28.019Z,23.48
2022-08-29T10:51:59.427Z,23.45
2022-08-29T10:52:34.283Z,23.44
2022-08-29T10:53:25.074Z,23.45
2022-08-29T10:54:16.780Z,23.46
2022-08-29T10:54:48.264Z,23.45
2022-08-29T10:55:21.707Z,23.45
2022-08-29T10:55:53.163Z,23.45
2022-08-29T10:56:27.702Z,23.44
2022-08-29T10:56:59.312Z,23.42
2022-08-29T10:57:56.657Z,23.42
2022-08-29T10:58:28.162Z,23.45
2022-08-29T10:58:59.578Z,23.46
2022-08-29T10:59:30.997Z,23.44
2022-08-29T11:00:05.273Z,23.44
2022-08-29T11:00:42.110Z,23.44
2022-08-29T11:01:13.613Z,23.46
2022-08-29T11:01:55.789Z,23.48
2022-08-29T11:02:30.109Z,23.50
2022-08-29T11:03:11.502Z,23.54
2022-08-29T11:03:49.148Z,23.52
2022-08-29T11:04:22.844Z,23.51
2022-08-29T11:04:54.979Z,23.53
2022-08-29T11:05:27.089Z,23.55
2022-08-29T11:05:59.603Z,23.54
2022-08-29T11:06:41.342Z,23.54
2022-08-29T11:07:23.161Z,23.53
2022-08-29T11:08:01.358Z,23.53
2022-08-29T11:08:38.028Z,23.50
2022-08-29T11:09:14.673Z,23.51
2022-08-29T11:09:50.325Z,23.52
2022-08-29T11:10:25.542Z,23.50
2022-08-29T11:10:57.036Z,23.51
2022-08-29T11:11:29.027Z,23.51
2022-08-29T11:12:06.704Z,23.50
2022-08-29T11:12:57.223Z,23.48
2022-08-29T11:13:29.975Z,23.50
2022-08-29T11:14:05.762Z,23.51
2022-08-29T11:14:41.171Z,23.50
2022-08-29T11:15:18.254Z,23.46
2022-08-29T11:16:01.676Z,23.49
2022-08-29T11:16:36.176Z,23.46
2022-08-29T11:17:08.624Z,23.49
2022-08-29T11:17:40.835Z,23.51
2022-08-29T11:18:18.612Z,23.53
2022-08-29T11:19:06.175Z,23.55
2022-08-29T11:19:46.318Z,23.55
2022-08-29T11:20:19.199Z,23.54
2022-08-29T11:20:51.918Z,23.54
2022-08-29T11:21:26.310Z,23.51
2022-08-29T11:22:00.889Z,23.55
2022-08-29T11:22:36.026Z,23.52
2022-08-29T11:23:09.341Z,23.56
2022-08-29T11:23:41.522Z,23.54
2022-08-29T11:24:13.504Z,23.53
2022-08-29T11:24:47.196Z,23.53
2022-08-29T11:25:19.492Z,23.53
2022-08-29T11:25:50.940Z,23.48
2022-08-29T11:26:22.295Z,23.51
2022-08-29T11:26:59.813Z,23.51
2022-08-29T11:27:34.501Z,23.52
2022-08-29T11:28:18.076Z,23.49
2022-08-29T11:29:02.004Z,23.44
2022-08-29T11:29:56.470Z,23.47
2022-08-29T11:30:30.295Z,23.45
2022-08-29T11:31:21.621Z,23.45
2022-08-29T11:32:02.023Z,23.47
2022-08-29T11:32:36.035Z,23.47
2022-08-29T11:33:16.856Z,23.44
2022-08-29T11:33:57.471Z,23.44
2022-08-29T11:34:51.981Z,23.45
2022-08-29T11:35:23.474Z,23.45
2022-08-29T11:36:05.072Z,23.49
2022-08-29T11:36:41.729Z,23.51
2022-08-29T11:37:24.393Z,23.49
2022-08-29T11:38:14.249Z,23.48
2022-08-29T11:38:45.662Z,23.47
2022-08-29T11:39:23.213Z,23.46
2022-08-29T11:40:00.766Z,23.46
2022-08-29T11:41:43.233Z,23.50
2022-08-29T11:42:15.002Z,23.47
2022-08-29T11:42:50.167Z,23.47
2022-08-29T11:43:24.218Z,23.47
2022-08-29T11:43:57.094Z,23.49
2022-08-29T11:44:33.597Z,23.49
2022-08-29T11:45:05.416Z,23.47
2022-08-29T11:45:38.462Z,23.48
2022-08-29T11:46:10.107Z,23.46
2022-08-29T11:46:49.013Z,23.48
2022-08-29T11:47:56.909Z,23.51
2022-08-29T11:48:31.620Z,23.47
2022-08-29T11:49:28.911Z,23.48
2022-08-29T11:50:06.350Z,23.48
2022-08-29T11:50:38.417Z,23.46
2022-08-29T11:51:28.825Z,23.46
2022-08-29T11:52:22.378Z,23.47
2022-08-29T11:52:55.359Z,23.45
2022-08-29T11:53:30.372Z,23.43
2022-08-29T11:54:20.559Z,23.46
2022-08-29T11:54:53.009Z,23.47
2022-08-29T11:55:27.068Z,23.49
2022-08-29T11:56:13.327Z,23.47
2022-08-29T11:56:44.759Z,23.45
2022-08-29T11:57:16.336Z,23.46
2022-08-29T11:57:49.084Z,23.47
2022-08-29T11:58:20.462Z,23.48
2022-08-29T11:58:52.702Z,23.49
2022-08-29T11:59:59.368Z,23.52
2022-08-29T12:00:33.468Z,23.51
2022-08-29T12:01:04.854Z,23.52
2022-08-29T12:01:39.653Z,23.52
2022-08-29T12:02:11.900Z,23.53
2022-08-29T12:02:48.310Z,23.50
2022-08-29T12:03:40.675Z,23.51
2022-08-29T12:04:13.909Z,23.52
2022-08-29T12:05:11.870Z,23.51
2022-08-29T12:05:54.537Z,23.54
2022-08-29T12:06:29.650Z,23.55
2022-08-29T12:07:01.438Z,23.56
2022-08-29T12:07:33.086Z,23.56
2022-08-29T12:08:36.225Z,23.53
2022-08-29T12:09:13.789Z,23.55
2022-08-29T12:09:50.196Z,23.52
2022-08-29T12:10:21.586Z,23.57
2022-08-29T12:10:54.172Z,23.58
2022-08-29T12:11:45.507Z,23.59
2022-08-29T12:12:18.344Z,23.61
2022-08-29T12:12:51.168Z,23.66
2022-08-29T12:13:41.634Z,23.68
2022-08-29T12:14:27.947Z,23.67
2022-08-29T12:14:59.432Z,23.67
2022-08-29T12:15:30.830Z,23.66
2022-08-29T12:16:08.586Z,23.65
2022-08-29T12:16:48.989Z,23.60
2022-08-29T12:17:24.591Z,23.57
2022-08-29T12:18:02.292Z,23.55
2022-08-29T12:18:36.684Z,23.55
2022-08-29T12:19:08.410Z,23.57
2022-08-29T12:19:46.080Z,23.62
2022-08-29T12:20:18.661Z,23.63
2022-08-29T12:20:50.687Z,23.62
2022-08-29T12:21:31.555Z,23.64
2022-08-29T12:22:02.996Z,23.67
2022-08-29T12:22:46.286Z,23.61
2022-08-29T12:23:18.363Z,23.64
2022-08-29T12:23:50.057Z,23.63
2022-08-29T12:24:39.600Z,23.63
2022-08-29T12:25:23.203Z,23.59
2022-08-29T12:26:15.805Z,23.56
2022-08-29T12:26:46.658Z,23.57
2022-08-29T12:27:21.460Z,23.57
2022-08-29T12:27:55.815Z,23.56
2022-08-29T12:28:30.746Z,23.55
2022-08-29T12:29:02.281Z,23.53
2022-08-29T12:29:44.482Z,23.53
2022-08-29T12:30:16.431Z,23.58
2022-08-29T12:30:48.960Z,23.60
2022-08-29T12:31:51.342Z,23.61
2022-08-29T12:32:53.594Z,23.63
2022-08-29T12:33:37.445Z,23.63
2022-08-29T12:34:10.384Z,23.64
2022-08-29T12:35:00.201Z,23.65
2022-08-29T12:35:38.526Z,23.65
2022-08-29T12:36:09.895Z,23.63